KALN

St Louis Regional Airport

Alton/St Louis, Illinois, USA
METAR KALN 212147Z 29012KT 10SM SCT060 27/19 A2968
Observed Flight Rules
Jun-21 @ 21:47 UTC (20 minutes ago) Visual Flight Rules
Wind Visibility Clouds
290° at 12 knots 10 miles
  • Scattered at 6,000' AGL
Temperatures Readings
Current 27°C / 81°F
Dewpoint 19°C / 66°F
Humidity 62%
Altimeter 29.68" Hg
Pressure 1005 hPa
Elevation 166
METAR KALN 212147Z 29012KT 10SM SCT060 27/19 A2968
Observed Flight Rules
Jun-21 @ 21:47 UTC
(20 minutes ago)
VFR
Wind Visibility
290° at 12 knots 10 miles
Clouds
  • Scattered at 6,000' AGL
Temperature Dewpoint
27°C / 81°F 19°C / 66°F
Humidity Altimeter Pressure
62% 29.68" Hg 1005 hPa